sensor_id;sensor_type;location;lat;lon;timestamp;P1;durP1;ratioP1;P2;durP2;ratioP2
75218;SDS011;63801;49.414;19.474;2023-04-21T00:01:17;34.58;;;18.83;;
75218;SDS011;63801;49.414;19.474;2023-04-21T00:03:18;40.83;;;19.65;;
75218;SDS011;63801;49.414;19.474;2023-04-21T00:05:21;36.92;;;17.92;;
75218;SDS011;63801;49.414;19.474;2023-04-21T00:07:21;41.65;;;18.42;;
75218;SDS011;63801;49.414;19.474;2023-04-21T00:09:21;39.67;;;18.45;;
75218;SDS011;63801;49.414;19.474;2023-04-21T00:11:22;40.95;;;19.13;;
75218;SDS011;63801;49.414;19.474;2023-04-21T00:13:22;42.40;;;19.58;;
75218;SDS011;63801;49.414;19.474;2023-04-21T00:15:23;40.08;;;18.80;;
75218;SDS011;63801;49.414;19.474;2023-04-21T00:17:23;34.25;;;15.57;;
75218;SDS011;63801;49.414;19.474;2023-04-21T00:19:24;34.28;;;16.05;;
75218;SDS011;63801;49.414;19.474;2023-04-21T00:21:24;24.88;;;12.80;;
75218;SDS011;63801;49.414;19.474;2023-04-21T00:23:25;30.40;;;15.52;;
75218;SDS011;63801;49.414;19.474;2023-04-21T00:25:26;39.83;;;19.13;;
75218;SDS011;63801;49.414;19.474;2023-04-21T00:27:26;37.05;;;19.63;;
75218;SDS011;63801;49.414;19.474;2023-04-21T00:29:26;34.70;;;19.27;;
75218;SDS011;63801;49.414;19.474;2023-04-21T00:31:27;31.63;;;17.20;;
75218;SDS011;63801;49.414;19.474;2023-04-21T00:33:27;33.08;;;17.50;;
75218;SDS011;63801;49.414;19.474;2023-04-21T00:35:28;32.90;;;16.90;;
75218;SDS011;63801;49.414;19.474;2023-04-21T00:37:28;35.28;;;16.80;;
75218;SDS011;63801;49.414;19.474;2023-04-21T00:39:29;32.25;;;16.75;;
75218;SDS011;63801;49.414;19.474;2023-04-21T00:41:29;34.63;;;17.52;;
75218;SDS011;63801;49.414;19.474;2023-04-21T00:43:30;42.85;;;18.73;;
75218;SDS011;63801;49.414;19.474;2023-04-21T00:45:30;45.17;;;20.20;;
75218;SDS011;63801;49.414;19.474;2023-04-21T00:47:31;46.28;;;21.83;;
75218;SDS011;63801;49.414;19.474;2023-04-21T00:49:31;47.95;;;22.20;;
75218;SDS011;63801;49.414;19.474;2023-04-21T00:51:32;49.42;;;22.95;;
75218;SDS011;63801;49.414;19.474;2023-04-21T00:53:33;39.80;;;19.80;;
75218;SDS011;63801;49.414;19.474;2023-04-21T00:55:33;48.03;;;21.00;;
75218;SDS011;63801;49.414;19.474;2023-04-21T00:57:34;45.35;;;21.35;;
75218;SDS011;63801;49.414;19.474;2023-04-21T00:59:35;43.70;;;21.05;;
75218;SDS011;63801;49.414;19.474;2023-04-21T01:01:36;47.03;;;21.00;;
75218;SDS011;63801;49.414;19.474;2023-04-21T01:03:37;50.15;;;22.77;;
75218;SDS011;63801;49.414;19.474;2023-04-21T01:05:38;46.65;;;23.27;;
75218;SDS011;63801;49.414;19.474;2023-04-21T01:07:38;42.55;;;22.48;;
75218;SDS011;63801;49.414;19.474;2023-04-21T01:09:39;53.67;;;25.85;;
75218;SDS011;63801;49.414;19.474;2023-04-21T01:11:39;48.83;;;23.77;;
75218;SDS011;63801;49.414;19.474;2023-04-21T01:13:40;49.58;;;24.40;;
75218;SDS011;63801;49.414;19.474;2023-04-21T01:15:40;50.10;;;23.92;;
75218;SDS011;63801;49.414;19.474;2023-04-21T01:17:40;52.40;;;22.42;;
75218;SDS011;63801;49.414;19.474;2023-04-21T01:19:41;50.92;;;23.77;;
75218;SDS011;63801;49.414;19.474;2023-04-21T01:21:42;56.95;;;25.45;;
75218;SDS011;63801;49.414;19.474;2023-04-21T01:23:42;56.65;;;25.20;;
75218;SDS011;63801;49.414;19.474;2023-04-21T01:25:43;51.45;;;25.50;;
75218;SDS011;63801;49.414;19.474;2023-04-21T01:27:43;51.17;;;24.17;;
75218;SDS011;63801;49.414;19.474;2023-04-21T01:29:44;46.13;;;22.60;;
75218;SDS011;63801;49.414;19.474;2023-04-21T01:31:45;43.90;;;22.83;;
75218;SDS011;63801;49.414;19.474;2023-04-21T01:33:47;50.78;;;23.23;;
75218;SDS011;63801;49.414;19.474;2023-04-21T01:35:47;45.60;;;22.38;;
75218;SDS011;63801;49.414;19.474;2023-04-21T01:37:48;52.63;;;25.05;;
75218;SDS011;63801;49.414;19.474;2023-04-21T01:39:49;58.83;;;26.58;;
75218;SDS011;63801;49.414;19.474;2023-04-21T01:41:53;39.13;;;18.90;;
75218;SDS011;63801;49.414;19.474;2023-04-21T01:43:56;31.67;;;14.18;;
75218;SDS011;63801;49.414;19.474;2023-04-21T01:45:57;29.92;;;14.15;;
75218;SDS011;63801;49.414;19.474;2023-04-21T01:47:57;35.42;;;14.75;;
75218;SDS011;63801;49.414;19.474;2023-04-21T01:49:57;45.03;;;25.48;;
75218;SDS011;63801;49.414;19.474;2023-04-21T01:51:58;55.05;;;32.42;;
75218;SDS011;63801;49.414;19.474;2023-04-21T01:53:58;50.53;;;28.27;;
75218;SDS011;63801;49.414;19.474;2023-04-21T01:55:58;48.58;;;25.77;;
75218;SDS011;63801;49.414;19.474;2023-04-21T01:57:58;43.22;;;22.75;;
75218;SDS011;63801;49.414;19.474;2023-04-21T01:59:59;45.63;;;19.40;;
75218;SDS011;63801;49.414;19.474;2023-04-21T02:02:00;43.95;;;19.02;;
75218;SDS011;63801;49.414;19.474;2023-04-21T02:04:01;53.80;;;23.08;;
75218;SDS011;63801;49.414;19.474;2023-04-21T02:06:02;47.72;;;21.20;;
75218;SDS011;63801;49.414;19.474;2023-04-21T02:08:03;44.50;;;20.95;;
75218;SDS011;63801;49.414;19.474;2023-04-21T02:10:03;52.88;;;22.05;;
75218;SDS011;63801;49.414;19.474;2023-04-21T02:12:04;46.35;;;23.10;;
75218;SDS011;63801;49.414;19.474;2023-04-21T02:14:05;53.17;;;22.50;;
75218;SDS011;63801;49.414;19.474;2023-04-21T02:16:05;53.40;;;23.30;;
75218;SDS011;63801;49.414;19.474;2023-04-21T02:18:06;62.70;;;27.02;;
75218;SDS011;63801;49.414;19.474;2023-04-21T02:20:07;79.57;;;26.83;;
75218;SDS011;63801;49.414;19.474;2023-04-21T02:22:08;124.25;;;28.00;;
75218;SDS011;63801;49.414;19.474;2023-04-21T02:24:09;67.00;;;25.20;;
75218;SDS011;63801;49.414;19.474;2023-04-21T02:26:10;59.80;;;24.60;;
75218;SDS011;63801;49.414;19.474;2023-04-21T02:28:10;137.65;;;30.85;;
75218;SDS011;63801;49.414;19.474;2023-04-21T02:30:10;139.05;;;29.90;;
75218;SDS011;63801;49.414;19.474;2023-04-21T02:32:11;346.42;;;35.53;;
75218;SDS011;63801;49.414;19.474;2023-04-21T02:34:11;377.95;;;34.05;;
75218;SDS011;63801;49.414;19.474;2023-04-21T02:36:11;239.90;;;32.35;;
75218;SDS011;63801;49.414;19.474;2023-04-21T02:38:12;190.00;;;30.77;;
75218;SDS011;63801;49.414;19.474;2023-04-21T02:40:12;109.60;;;30.67;;
75218;SDS011;63801;49.414;19.474;2023-04-21T02:42:12;81.55;;;27.65;;
75218;SDS011;63801;49.414;19.474;2023-04-21T02:44:13;64.75;;;24.55;;
75218;SDS011;63801;49.414;19.474;2023-04-21T02:46:13;56.50;;;21.67;;
75218;SDS011;63801;49.414;19.474;2023-04-21T02:48:13;46.20;;;20.73;;
75218;SDS011;63801;49.414;19.474;2023-04-21T02:50:14;42.22;;;20.70;;
75218;SDS011;63801;49.414;19.474;2023-04-21T02:52:15;50.45;;;22.83;;
75218;SDS011;63801;49.414;19.474;2023-04-21T02:54:15;65.90;;;26.50;;
75218;SDS011;63801;49.414;19.474;2023-04-21T02:56:16;72.85;;;29.08;;
75218;SDS011;63801;49.414;19.474;2023-04-21T02:58:16;62.10;;;25.45;;
75218;SDS011;63801;49.414;19.474;2023-04-21T03:00:17;66.90;;;25.05;;
75218;SDS011;63801;49.414;19.474;2023-04-21T03:02:17;73.10;;;27.90;;
75218;SDS011;63801;49.414;19.474;2023-04-21T03:04:18;61.00;;;26.23;;
75218;SDS011;63801;49.414;19.474;2023-04-21T03:06:18;55.95;;;26.08;;
75218;SDS011;63801;49.414;19.474;2023-04-21T03:08:18;61.92;;;24.95;;
75218;SDS011;63801;49.414;19.474;2023-04-21T03:10:19;64.70;;;25.08;;
75218;SDS011;63801;49.414;19.474;2023-04-21T03:12:20;57.75;;;25.70;;
75218;SDS011;63801;49.414;19.474;2023-04-21T03:14:20;97.22;;;28.23;;
75218;SDS011;63801;49.414;19.474;2023-04-21T03:16:20;86.72;;;34.47;;
75218;SDS011;63801;49.414;19.474;2023-04-21T03:18:21;64.85;;;27.95;;
75218;SDS011;63801;49.414;19.474;2023-04-21T03:20:22;43.80;;;18.90;;
75218;SDS011;63801;49.414;19.474;2023-04-21T03:22:22;34.22;;;15.02;;
75218;SDS011;63801;49.414;19.474;2023-04-21T03:24:23;63.58;;;18.52;;
75218;SDS011;63801;49.414;19.474;2023-04-21T03:26:23;39.78;;;15.25;;
75218;SDS011;63801;49.414;19.474;2023-04-21T03:28:24;47.78;;;17.67;;
75218;SDS011;63801;49.414;19.474;2023-04-21T03:30:24;42.08;;;18.35;;
75218;SDS011;63801;49.414;19.474;2023-04-21T03:32:25;44.67;;;19.45;;
75218;SDS011;63801;49.414;19.474;2023-04-21T03:34:25;63.55;;;20.92;;
75218;SDS011;63801;49.414;19.474;2023-04-21T03:36:26;55.33;;;21.00;;
75218;SDS011;63801;49.414;19.474;2023-04-21T03:38:29;217.15;;;26.17;;
75218;SDS011;63801;49.414;19.474;2023-04-21T03:40:30;62.53;;;22.23;;
75218;SDS011;63801;49.414;19.474;2023-04-21T03:42:30;80.22;;;23.30;;
75218;SDS011;63801;49.414;19.474;2023-04-21T03:44:31;74.30;;;23.55;;
75218;SDS011;63801;49.414;19.474;2023-04-21T03:46:31;105.32;;;29.60;;
75218;SDS011;63801;49.414;19.474;2023-04-21T03:48:31;145.80;;;34.20;;
75218;SDS011;63801;49.414;19.474;2023-04-21T03:50:32;82.10;;;29.42;;
75218;SDS011;63801;49.414;19.474;2023-04-21T03:52:32;94.13;;;30.85;;
75218;SDS011;63801;49.414;19.474;2023-04-21T03:54:33;122.82;;;31.55;;
75218;SDS011;63801;49.414;19.474;2023-04-21T03:56:33;181.15;;;32.92;;
75218;SDS011;63801;49.414;19.474;2023-04-21T03:58:33;212.45;;;34.50;;
75218;SDS011;63801;49.414;19.474;2023-04-21T04:00:34;185.82;;;33.55;;
75218;SDS011;63801;49.414;19.474;2023-04-21T04:02:35;137.75;;;31.75;;
75218;SDS011;63801;49.414;19.474;2023-04-21T04:04:35;104.68;;;28.33;;
75218;SDS011;63801;49.414;19.474;2023-04-21T04:06:36;145.07;;;30.40;;
75218;SDS011;63801;49.414;19.474;2023-04-21T04:08:36;196.10;;;30.27;;
75218;SDS011;63801;49.414;19.474;2023-04-21T04:10:36;209.63;;;29.83;;
75218;SDS011;63801;49.414;19.474;2023-04-21T04:12:37;202.15;;;29.20;;
75218;SDS011;63801;49.414;19.474;2023-04-21T04:14:37;240.55;;;30.88;;
75218;SDS011;63801;49.414;19.474;2023-04-21T04:16:38;170.07;;;29.13;;
75218;SDS011;63801;49.414;19.474;2023-04-21T04:18:38;183.85;;;29.23;;
75218;SDS011;63801;49.414;19.474;2023-04-21T04:20:39;169.70;;;29.45;;
75218;SDS011;63801;49.414;19.474;2023-04-21T04:22:39;130.18;;;28.30;;
75218;SDS011;63801;49.414;19.474;2023-04-21T04:24:39;209.35;;;29.60;;
75218;SDS011;63801;49.414;19.474;2023-04-21T04:26:41;173.73;;;28.35;;
75218;SDS011;63801;49.414;19.474;2023-04-21T04:28:43;204.47;;;31.80;;
75218;SDS011;63801;49.414;19.474;2023-04-21T04:30:43;160.63;;;28.20;;
75218;SDS011;63801;49.414;19.474;2023-04-21T04:32:44;179.82;;;29.33;;
75218;SDS011;63801;49.414;19.474;2023-04-21T04:34:44;106.47;;;28.30;;
75218;SDS011;63801;49.414;19.474;2023-04-21T04:36:45;75.22;;;27.45;;
75218;SDS011;63801;49.414;19.474;2023-04-21T04:38:47;86.18;;;28.83;;
75218;SDS011;63801;49.414;19.474;2023-04-21T04:40:54;96.55;;;32.05;;
75218;SDS011;63801;49.414;19.474;2023-04-21T04:42:56;95.25;;;34.40;;
75218;SDS011;63801;49.414;19.474;2023-04-21T04:44:57;98.20;;;31.95;;
75218;SDS011;63801;49.414;19.474;2023-04-21T04:46:58;87.47;;;30.63;;
75218;SDS011;63801;49.414;19.474;2023-04-21T04:49:02;86.43;;;30.60;;
75218;SDS011;63801;49.414;19.474;2023-04-21T04:51:02;93.45;;;37.15;;
75218;SDS011;63801;49.414;19.474;2023-04-21T04:53:03;66.53;;;20.88;;
75218;SDS011;63801;49.414;19.474;2023-04-21T04:55:03;77.57;;;22.05;;
75218;SDS011;63801;49.414;19.474;2023-04-21T04:57:04;84.25;;;22.02;;
75218;SDS011;63801;49.414;19.474;2023-04-21T04:59:05;132.38;;;27.98;;
75218;SDS011;63801;49.414;19.474;2023-04-21T05:01:12;219.32;;;43.88;;
75218;SDS011;63801;49.414;19.474;2023-04-21T05:03:13;198.77;;;51.58;;
75218;SDS011;63801;49.414;19.474;2023-04-21T05:05:13;130.23;;;43.78;;
75218;SDS011;63801;49.414;19.474;2023-04-21T05:07:13;123.88;;;49.65;;
75218;SDS011;63801;49.414;19.474;2023-04-21T05:09:14;142.13;;;52.38;;
75218;SDS011;63801;49.414;19.474;2023-04-21T05:11:14;136.18;;;50.90;;
75218;SDS011;63801;49.414;19.474;2023-04-21T05:13:15;250.48;;;53.08;;
75218;SDS011;63801;49.414;19.474;2023-04-21T05:15:16;189.40;;;51.33;;
75218;SDS011;63801;49.414;19.474;2023-04-21T05:17:17;108.00;;;42.95;;
75218;SDS011;63801;49.414;19.474;2023-04-21T05:19:17;89.18;;;39.78;;
75218;SDS011;63801;49.414;19.474;2023-04-21T05:21:36;95.32;;;37.83;;
75218;SDS011;63801;49.414;19.474;2023-04-21T05:23:36;83.97;;;34.50;;
75218;SDS011;63801;49.414;19.474;2023-04-21T05:25:36;157.20;;;52.58;;
75218;SDS011;63801;49.414;19.474;2023-04-21T05:27:37;147.77;;;47.75;;
75218;SDS011;63801;49.414;19.474;2023-04-21T05:29:37;140.43;;;48.65;;
75218;SDS011;63801;49.414;19.474;2023-04-21T05:31:38;119.00;;;43.70;;
75218;SDS011;63801;49.414;19.474;2023-04-21T05:33:38;109.22;;;42.72;;
75218;SDS011;63801;49.414;19.474;2023-04-21T05:35:38;96.60;;;41.90;;
75218;SDS011;63801;49.414;19.474;2023-04-21T05:37:39;139.90;;;66.90;;
75218;SDS011;63801;49.414;19.474;2023-04-21T05:39:39;116.95;;;56.05;;
75218;SDS011;63801;49.414;19.474;2023-04-21T05:41:40;134.35;;;59.53;;
75218;SDS011;63801;49.414;19.474;2023-04-21T05:43:41;109.03;;;43.10;;
75218;SDS011;63801;49.414;19.474;2023-04-21T05:45:41;139.73;;;58.33;;
75218;SDS011;63801;49.414;19.474;2023-04-21T05:47:41;119.55;;;53.53;;
75218;SDS011;63801;49.414;19.474;2023-04-21T05:49:42;89.75;;;39.05;;
75218;SDS011;63801;49.414;19.474;2023-04-21T05:51:48;61.47;;;26.58;;
75218;SDS011;63801;49.414;19.474;2023-04-21T05:53:49;72.63;;;28.65;;
75218;SDS011;63801;49.414;19.474;2023-04-21T05:55:49;79.13;;;32.05;;
75218;SDS011;63801;49.414;19.474;2023-04-21T05:57:49;65.22;;;28.33;;
75218;SDS011;63801;49.414;19.474;2023-04-21T05:59:50;125.90;;;60.22;;
75218;SDS011;63801;49.414;19.474;2023-04-21T06:01:50;61.80;;;29.48;;
75218;SDS011;63801;49.414;19.474;2023-04-21T06:03:51;65.68;;;28.70;;
75218;SDS011;63801;49.414;19.474;2023-04-21T06:05:52;70.90;;;33.78;;
75218;SDS011;63801;49.414;19.474;2023-04-21T06:07:53;72.43;;;31.90;;
75218;SDS011;63801;49.414;19.474;2023-04-21T06:09:54;57.75;;;27.65;;
75218;SDS011;63801;49.414;19.474;2023-04-21T06:11:54;50.72;;;23.42;;
75218;SDS011;63801;49.414;19.474;2023-04-21T06:13:56;34.63;;;18.73;;
75218;SDS011;63801;49.414;19.474;2023-04-21T06:15:58;35.50;;;18.23;;
75218;SDS011;63801;49.414;19.474;2023-04-21T06:17:59;37.30;;;18.00;;
75218;SDS011;63801;49.414;19.474;2023-04-21T06:19:59;30.48;;;14.25;;
75218;SDS011;63801;49.414;19.474;2023-04-21T06:21:59;40.58;;;19.73;;
75218;SDS011;63801;49.414;19.474;2023-04-21T06:24:00;58.92;;;29.73;;
75218;SDS011;63801;49.414;19.474;2023-04-21T06:26:01;65.88;;;32.13;;
75218;SDS011;63801;49.414;19.474;2023-04-21T06:28:04;63.08;;;30.83;;
75218;SDS011;63801;49.414;19.474;2023-04-21T06:30:04;65.95;;;32.13;;
75218;SDS011;63801;49.414;19.474;2023-04-21T06:32:05;73.15;;;32.63;;
75218;SDS011;63801;49.414;19.474;2023-04-21T06:34:06;71.97;;;33.00;;
75218;SDS011;63801;49.414;19.474;2023-04-21T06:36:06;72.10;;;35.33;;
75218;SDS011;63801;49.414;19.474;2023-04-21T06:38:07;59.63;;;33.10;;
75218;SDS011;63801;49.414;19.474;2023-04-21T06:40:08;64.47;;;33.45;;
75218;SDS011;63801;49.414;19.474;2023-04-21T06:42:11;57.13;;;29.92;;
75218;SDS011;63801;49.414;19.474;2023-04-21T06:44:11;67.40;;;32.35;;
75218;SDS011;63801;49.414;19.474;2023-04-21T06:46:14;70.15;;;34.50;;
75218;SDS011;63801;49.414;19.474;2023-04-21T06:48:15;55.58;;;28.58;;
75218;SDS011;63801;49.414;19.474;2023-04-21T06:50:15;53.42;;;28.98;;
75218;SDS011;63801;49.414;19.474;2023-04-21T06:52:16;63.22;;;34.03;;
75218;SDS011;63801;49.414;19.474;2023-04-21T06:54:16;56.78;;;27.40;;
75218;SDS011;63801;49.414;19.474;2023-04-21T06:56:16;39.70;;;21.52;;
75218;SDS011;63801;49.414;19.474;2023-04-21T06:58:17;31.35;;;17.08;;
75218;SDS011;63801;49.414;19.474;2023-04-21T07:00:17;25.77;;;14.48;;
75218;SDS011;63801;49.414;19.474;2023-04-21T07:02:17;26.70;;;14.02;;
75218;SDS011;63801;49.414;19.474;2023-04-21T07:04:18;26.25;;;13.70;;
75218;SDS011;63801;49.414;19.474;2023-04-21T07:06:18;27.10;;;14.73;;
75218;SDS011;63801;49.414;19.474;2023-04-21T07:08:18;29.50;;;14.13;;
75218;SDS011;63801;49.414;19.474;2023-04-21T07:10:19;28.77;;;12.75;;
75218;SDS011;63801;49.414;19.474;2023-04-21T07:12:19;30.70;;;13.68;;
75218;SDS011;63801;49.414;19.474;2023-04-21T07:14:19;26.55;;;13.15;;
75218;SDS011;63801;49.414;19.474;2023-04-21T07:16:20;25.13;;;14.65;;
75218;SDS011;63801;49.414;19.474;2023-04-21T07:18:20;24.88;;;14.18;;
75218;SDS011;63801;49.414;19.474;2023-04-21T07:20:21;28.38;;;14.05;;
75218;SDS011;63801;49.414;19.474;2023-04-21T07:22:21;32.17;;;15.35;;
75218;SDS011;63801;49.414;19.474;2023-04-21T07:24:21;35.38;;;18.02;;
75218;SDS011;63801;49.414;19.474;2023-04-21T07:26:21;36.03;;;17.10;;
75218;SDS011;63801;49.414;19.474;2023-04-21T07:28:22;30.85;;;15.10;;
75218;SDS011;63801;49.414;19.474;2023-04-21T07:30:22;33.85;;;15.48;;
75218;SDS011;63801;49.414;19.474;2023-04-21T07:32:23;32.97;;;15.65;;
75218;SDS011;63801;49.414;19.474;2023-04-21T07:34:23;30.20;;;13.90;;
75218;SDS011;63801;49.414;19.474;2023-04-21T07:36:24;27.95;;;13.32;;
75218;SDS011;63801;49.414;19.474;2023-04-21T07:38:27;31.88;;;15.00;;
75218;SDS011;63801;49.414;19.474;2023-04-21T07:40:27;30.95;;;15.05;;
75218;SDS011;63801;49.414;19.474;2023-04-21T07:42:27;26.83;;;16.10;;
75218;SDS011;63801;49.414;19.474;2023-04-21T07:44:28;28.60;;;15.55;;
75218;SDS011;63801;49.414;19.474;2023-04-21T07:46:28;25.48;;;14.10;;
75218;SDS011;63801;49.414;19.474;2023-04-21T07:48:30;30.45;;;15.50;;
75218;SDS011;63801;49.414;19.474;2023-04-21T07:50:31;26.30;;;14.88;;
75218;SDS011;63801;49.414;19.474;2023-04-21T07:52:31;27.15;;;13.85;;
75218;SDS011;63801;49.414;19.474;2023-04-21T07:54:32;24.50;;;13.32;;
75218;SDS011;63801;49.414;19.474;2023-04-21T07:56:32;23.63;;;12.18;;
75218;SDS011;63801;49.414;19.474;2023-04-21T07:58:32;23.60;;;11.60;;
75218;SDS011;63801;49.414;19.474;2023-04-21T08:00:32;22.38;;;10.82;;
75218;SDS011;63801;49.414;19.474;2023-04-21T08:02:33;23.02;;;11.57;;
75218;SDS011;63801;49.414;19.474;2023-04-21T08:04:33;20.27;;;9.77;;
75218;SDS011;63801;49.414;19.474;2023-04-21T08:06:34;24.23;;;10.10;;
75218;SDS011;63801;49.414;19.474;2023-04-21T08:08:34;20.65;;;8.43;;
75218;SDS011;63801;49.414;19.474;2023-04-21T08:10:34;16.92;;;8.05;;
75218;SDS011;63801;49.414;19.474;2023-04-21T08:12:35;23.05;;;8.63;;
75218;SDS011;63801;49.414;19.474;2023-04-21T08:14:35;27.80;;;12.18;;
75218;SDS011;63801;49.414;19.474;2023-04-21T08:16:36;29.73;;;10.80;;
75218;SDS011;63801;49.414;19.474;2023-04-21T08:18:37;16.67;;;5.93;;
75218;SDS011;63801;49.414;19.474;2023-04-21T08:20:38;15.50;;;6.72;;
75218;SDS011;63801;49.414;19.474;2023-04-21T08:22:38;26.17;;;11.07;;
75218;SDS011;63801;49.414;19.474;2023-04-21T08:24:38;19.95;;;7.20;;
75218;SDS011;63801;49.414;19.474;2023-04-21T08:26:39;17.65;;;8.63;;
75218;SDS011;63801;49.414;19.474;2023-04-21T08:28:39;24.08;;;9.57;;
75218;SDS011;63801;49.414;19.474;2023-04-21T08:30:39;28.52;;;13.57;;
75218;SDS011;63801;49.414;19.474;2023-04-21T08:32:40;17.60;;;8.25;;
75218;SDS011;63801;49.414;19.474;2023-04-21T08:34:41;21.13;;;7.60;;
75218;SDS011;63801;49.414;19.474;2023-04-21T08:36:41;22.38;;;8.98;;
75218;SDS011;63801;49.414;19.474;2023-04-21T08:38:43;21.25;;;8.15;;
75218;SDS011;63801;49.414;19.474;2023-04-21T08:40:43;18.48;;;8.10;;
75218;SDS011;63801;49.414;19.474;2023-04-21T08:42:44;15.02;;;7.50;;
75218;SDS011;63801;49.414;19.474;2023-04-21T08:44:45;18.48;;;8.10;;
75218;SDS011;63801;49.414;19.474;2023-04-21T08:46:49;22.48;;;11.15;;
75218;SDS011;63801;49.414;19.474;2023-04-21T08:48:50;20.38;;;8.57;;
75218;SDS011;63801;49.414;19.474;2023-04-21T08:50:50;16.73;;;6.95;;
75218;SDS011;63801;49.414;19.474;2023-04-21T08:52:53;13.35;;;6.68;;
75218;SDS011;63801;49.414;19.474;2023-04-21T08:54:54;13.30;;;6.82;;
75218;SDS011;63801;49.414;19.474;2023-04-21T08:56:55;16.92;;;8.45;;
75218;SDS011;63801;49.414;19.474;2023-04-21T08:58:57;14.67;;;7.07;;
75218;SDS011;63801;49.414;19.474;2023-04-21T09:00:57;13.43;;;6.82;;
75218;SDS011;63801;49.414;19.474;2023-04-21T09:02:58;17.35;;;7.07;;
75218;SDS011;63801;49.414;19.474;2023-04-21T09:04:59;14.07;;;6.65;;
75218;SDS011;63801;49.414;19.474;2023-04-21T09:07:00;12.60;;;7.28;;
75218;SDS011;63801;49.414;19.474;2023-04-21T09:09:00;14.57;;;6.57;;
75218;SDS011;63801;49.414;19.474;2023-04-21T09:11:01;13.02;;;6.60;;
75218;SDS011;63801;49.414;19.474;2023-04-21T09:13:07;12.55;;;6.47;;
75218;SDS011;63801;49.414;19.474;2023-04-21T09:15:11;19.55;;;7.47;;
75218;SDS011;63801;49.414;19.474;2023-04-21T09:17:13;14.90;;;6.78;;
75218;SDS011;63801;49.414;19.474;2023-04-21T09:19:15;15.75;;;8.43;;
75218;SDS011;63801;49.414;19.474;2023-04-21T09:21:16;11.30;;;6.65;;
75218;SDS011;63801;49.414;19.474;2023-04-21T09:23:19;15.07;;;7.65;;
75218;SDS011;63801;49.414;19.474;2023-04-21T09:25:20;13.35;;;6.88;;
75218;SDS011;63801;49.414;19.474;2023-04-21T09:27:21;13.73;;;7.30;;
75218;SDS011;63801;49.414;19.474;2023-04-21T09:29:22;13.45;;;7.30;;
75218;SDS011;63801;49.414;19.474;2023-04-21T09:31:23;14.88;;;7.63;;
75218;SDS011;63801;49.414;19.474;2023-04-21T09:33:24;17.63;;;7.70;;
75218;SDS011;63801;49.414;19.474;2023-04-21T09:35:27;14.30;;;6.72;;
75218;SDS011;63801;49.414;19.474;2023-04-21T09:37:30;14.68;;;6.97;;
75218;SDS011;63801;49.414;19.474;2023-04-21T09:39:33;12.70;;;7.70;;
75218;SDS011;63801;49.414;19.474;2023-04-21T09:41:33;13.57;;;6.72;;
75218;SDS011;63801;49.414;19.474;2023-04-21T09:43:33;15.77;;;7.65;;
75218;SDS011;63801;49.414;19.474;2023-04-21T09:45:34;21.60;;;9.80;;
75218;SDS011;63801;49.414;19.474;2023-04-21T09:47:39;12.27;;;6.22;;
75218;SDS011;63801;49.414;19.474;2023-04-21T09:49:41;29.70;;;16.55;;
75218;SDS011;63801;49.414;19.474;2023-04-21T09:51:44;19.63;;;8.15;;
75218;SDS011;63801;49.414;19.474;2023-04-21T09:53:44;16.60;;;6.85;;
75218;SDS011;63801;49.414;19.474;2023-04-21T09:55:49;18.63;;;6.35;;
75218;SDS011;63801;49.414;19.474;2023-04-21T09:57:50;15.07;;;6.72;;
75218;SDS011;63801;49.414;19.474;2023-04-21T09:59:59;12.20;;;5.90;;
75218;SDS011;63801;49.414;19.474;2023-04-21T10:02:07;14.55;;;6.53;;
75218;SDS011;63801;49.414;19.474;2023-04-21T10:04:08;12.02;;;5.47;;
75218;SDS011;63801;49.414;19.474;2023-04-21T10:06:09;14.68;;;6.50;;
75218;SDS011;63801;49.414;19.474;2023-04-21T10:08:10;11.77;;;6.20;;
75218;SDS011;63801;49.414;19.474;2023-04-21T10:10:27;10.88;;;5.80;;
75218;SDS011;63801;49.414;19.474;2023-04-21T10:12:30;11.57;;;5.95;;
75218;SDS011;63801;49.414;19.474;2023-04-21T10:14:32;10.23;;;6.53;;
75218;SDS011;63801;49.414;19.474;2023-04-21T10:16:34;15.07;;;6.40;;
75218;SDS011;63801;49.414;19.474;2023-04-21T10:18:36;9.73;;;5.47;;
75218;SDS011;63801;49.414;19.474;2023-04-21T10:22:50;10.65;;;6.05;;
75218;SDS011;63801;49.414;19.474;2023-04-21T10:24:58;14.38;;;6.35;;
75218;SDS011;63801;49.414;19.474;2023-04-21T10:27:03;11.68;;;6.03;;
75218;SDS011;63801;49.414;19.474;2023-04-21T10:29:03;9.85;;;6.18;;
75218;SDS011;63801;49.414;19.474;2023-04-21T10:33:28;11.27;;;5.88;;
75218;SDS011;63801;49.414;19.474;2023-04-21T10:35:57;14.48;;;7.70;;
75218;SDS011;63801;49.414;19.474;2023-04-21T10:38:10;15.90;;;8.13;;
75218;SDS011;63801;49.414;19.474;2023-04-21T10:40:33;10.23;;;6.00;;
75218;SDS011;63801;49.414;19.474;2023-04-21T10:42:35;16.08;;;6.68;;
75218;SDS011;63801;49.414;19.474;2023-04-21T10:44:36;11.00;;;6.07;;
75218;SDS011;63801;49.414;19.474;2023-04-21T10:46:44;10.48;;;5.68;;
75218;SDS011;63801;49.414;19.474;2023-04-21T10:48:52;11.18;;;6.30;;
75218;SDS011;63801;49.414;19.474;2023-04-21T10:50:52;22.02;;;9.05;;
75218;SDS011;63801;49.414;19.474;2023-04-21T10:53:08;11.65;;;6.07;;
75218;SDS011;63801;49.414;19.474;2023-04-21T10:55:10;12.50;;;5.93;;
75218;SDS011;63801;49.414;19.474;2023-04-21T10:57:18;11.15;;;6.32;;
75218;SDS011;63801;49.414;19.474;2023-04-21T10:59:19;10.88;;;6.20;;
75218;SDS011;63801;49.414;19.474;2023-04-21T11:01:20;13.23;;;6.03;;
75218;SDS011;63801;49.414;19.474;2023-04-21T11:03:20;11.32;;;6.72;;
75218;SDS011;63801;49.414;19.474;2023-04-21T11:05:27;12.43;;;6.55;;
75218;SDS011;63801;49.414;19.474;2023-04-21T11:07:29;13.25;;;6.70;;
75218;SDS011;63801;49.414;19.474;2023-04-21T11:09:30;13.48;;;7.15;;
75218;SDS011;63801;49.414;19.474;2023-04-21T11:11:31;12.50;;;6.80;;
75218;SDS011;63801;49.414;19.474;2023-04-21T11:13:31;12.35;;;6.35;;
75218;SDS011;63801;49.414;19.474;2023-04-21T11:15:33;14.73;;;7.28;;
75218;SDS011;63801;49.414;19.474;2023-04-21T11:17:34;14.23;;;6.30;;
75218;SDS011;63801;49.414;19.474;2023-04-21T11:19:38;14.18;;;6.65;;
75218;SDS011;63801;49.414;19.474;2023-04-21T11:21:38;10.93;;;6.55;;
75218;SDS011;63801;49.414;19.474;2023-04-21T11:23:39;18.25;;;6.72;;
75218;SDS011;63801;49.414;19.474;2023-04-21T11:25:44;11.43;;;6.60;;
75218;SDS011;63801;49.414;19.474;2023-04-21T11:27:54;13.40;;;7.13;;
75218;SDS011;63801;49.414;19.474;2023-04-21T11:29:56;17.17;;;10.38;;
75218;SDS011;63801;49.414;19.474;2023-04-21T11:31:56;15.63;;;7.15;;
75218;SDS011;63801;49.414;19.474;2023-04-21T11:33:58;16.98;;;9.20;;
75218;SDS011;63801;49.414;19.474;2023-04-21T11:36:02;10.98;;;5.93;;
75218;SDS011;63801;49.414;19.474;2023-04-21T11:38:03;12.63;;;6.22;;
75218;SDS011;63801;49.414;19.474;2023-04-21T11:40:04;11.77;;;6.03;;
75218;SDS011;63801;49.414;19.474;2023-04-21T11:42:06;14.23;;;7.20;;
75218;SDS011;63801;49.414;19.474;2023-04-21T11:44:07;13.57;;;5.97;;
75218;SDS011;63801;49.414;19.474;2023-04-21T11:46:26;14.32;;;8.02;;